Pegasus Voyager — C6AP3 — position and weather

sailwx.info

Track history (hours):
 
Tides and Currents Weather Stations Pressure Air Temp Water Temp Dewpoint Dewpoint Depression Visibility Wind Speed Wind Dir Waves Ship Positions

Pegasus Voyager

Last reported at 2017-Nov-23 03:30 UTC. Time now 2017-Nov-23 03:32 UTC.
Position N 33°08' W 117°57'.

Length 276 m; draft 9.4 m.

Type: Ship (hazmat cat C). MMSI: 311000111.

Date/timePositionNaut miles runAvg speedWind from/ knotsBaromVisibWave heightAir tempDewpointWater temp
2017-Nov-23 03:30N 33°08' W 117°57'3 6.2
2017-Nov-23 03:00N 33°11' W 117°59'0 0.5
2017-Nov-23 02:30N 33°11' W 117°59'2 4.9
2017-Nov-23 02:01N 33°10' W 118°02'611.1
2017-Nov-23 01:30N 33°07' W 118°08'611.1
2017-Nov-23 01:00N 33°05' W 118°14'610.9
2017-Nov-23 00:30N 33°06' W 118°21'2611.2
2017-Nov-22 22:11N 33°14' W 118°50'211.1
2017-Nov-22 22:00N 33°14' W 118°52'4 8.1
2017-Nov-22 21:30N 33°14' W 118°57'714.3
2017-Nov-22 21:01N 33°15' W 119°05'713.6
2017-Nov-22 20:30N 33°19' W 119°12'713.8
2017-Nov-22 19:59N 33°24' W 119°18'713.7
2017-Nov-22 19:31N 33°30' W 119°22'  
2017-Nov-20 00:30N 35°01' W 122°14'714.0
2017-Nov-20 00:00N 34°55' W 122°11'713.7
2017-Nov-19 23:30N 34°49' W 122°07'714.1
2017-Nov-19 23:00N 34°43' W 122°03'714.5
2017-Nov-19 22:30N 34°36' W 121°59'714.4
2017-Nov-19 22:00N 34°30' W 121°56'714.2
2017-Nov-19 21:30N 34°23' W 121°53'714.1
2017-Nov-19 21:00N 34°17' W 121°48'714.4
2017-Nov-19 20:30N 34°11' W 121°44'714.3
2017-Nov-19 20:00N 34°04' W 121°39'510.2
2017-Nov-19 19:30N 33°60' W 121°37'611.7
2017-Nov-19 19:00N 33°55' W 121°34'714.3
2017-Nov-19 18:30N 33°48' W 121°30'713.5
2017-Nov-19 18:00N 33°42' W 121°26'612.7
2017-Nov-19 17:30N 33°36' W 121°23'510.5
2017-Nov-19 17:00N 33°31' W 121°21'3 6.1
2017-Nov-19 16:30N 33°28' W 121°20'611.7
2017-Nov-19 15:59N 33°24' W 121°15'713.9
2017-Nov-19 15:29N 33°18' W 121°11'713.8
2017-Nov-19 15:01N 33°14' W 121°05'714.3
2017-Nov-19 14:31N 33°13' W 120°56'714.8
2017-Nov-19 14:00N 33°12' W 120°47'714.7
2017-Nov-19 13:30N 33°11' W 120°39'814.6
2017-Nov-19 12:59N 33°09' W 120°30'714.1
2017-Nov-19 12:30N 33°08' W 120°22'714.5
2017-Nov-19 12:01N 33°06' W 120°13'714.9
2017-Nov-19 11:30N 33°05' W 120°05'714.7
2017-Nov-19 11:00N 33°03' W 119°56'714.8
2017-Nov-19 10:31N 33°02' W 119°48'714.4
2017-Nov-19 10:01N 33°00' W 119°39'714.3
2017-Nov-19 09:30N 32°59' W 119°31'714.2
2017-Nov-19 09:00N 32°59' W 119°22'815.1
2017-Nov-19 08:30N 33°02' W 119°14'815.1
2017-Nov-19 08:00N 33°06' W 119°06'815.2
2017-Nov-19 07:29N 33°09' W 118°58'714.4
2017-Nov-19 07:00N 33°12' W 118°51'612.0
2017-Nov-19 06:30N 33°13' W 118°44'611.4
2017-Nov-19 05:58N 33°12' W 118°36'511.7
2017-Nov-19 05:30N 33°10' W 118°30'612.0
2017-Nov-19 05:00N 33°07' W 118°24'611.7
2017-Nov-19 04:29N 33°05' W 118°17'610.4
2017-Nov-19 03:54N 33°04' W 118°10'511.6
2017-Nov-19 03:30N 33°04' W 118°05'611.8
2017-Nov-19 03:01N 33°03' W 117°58'5 9.4
2017-Nov-19 02:30N 33°03' W 117°52'0 0.4
2017-Nov-19 01:56N 33°03' W 117°52'1 1.3
2017-Nov-19 01:26N 33°03' W 117°51'0 0.4
2017-Nov-19 00:56N 33°03' W 117°51'0 0.9
2017-Nov-19 00:29N 33°02' W 117°51'1 2.0
2017-Nov-18 23:56N 33°01' W 117°51'1 2.6
2017-Nov-18 23:26N 33°00' W 117°50'1 1.8
2017-Nov-18 22:56N 32°59' W 117°50'0 0.8
2017-Nov-18 22:26N 32°59' W 117°49'0 0.6
2017-Nov-18 21:59N 32°59' W 117°49'0 0.4
2017-Nov-18 21:29N 32°59' W 117°49'0 0.8
2017-Nov-18 20:56N 32°58' W 117°49'1 1.0
2017-Nov-18 20:26N 32°58' W 117°49'0 0.6
2017-Nov-18 19:56N 32°58' W 117°48'0 0.6
2017-Nov-18 19:26N 32°57' W 117°48'0 0.7
2017-Nov-18 18:56N 32°57' W 117°48'1 1.0
2017-Nov-18 18:08N 32°56' W 117°48'0 1.4
2017-Nov-18 17:56N 32°56' W 117°48'1 1.0
2017-Nov-18 17:26N 32°55' W 117°48'0 0.6
2017-Nov-18 16:50N 32°55' W 117°48'3 0.8
2017-Nov-18 13:26N 32°58' W 117°49'1 1.1
2017-Nov-18 12:56N 32°58' W 117°49'1 1.1
2017-Nov-18 12:26N 32°59' W 117°50'0 0.8
2017-Nov-18 11:57N 32°59' W 117°50'0 0.8
2017-Nov-18 11:30N 32°59' W 117°50'0 1.0
2017-Nov-18 11:00N 32°60' W 117°50'0 0.8
2017-Nov-18 10:30N 33°00' W 117°50'0 0.8
2017-Nov-18 10:00N 33°00' W 117°50'0 0.8
2017-Nov-18 09:30N 33°01' W 117°50'0 0.7
2017-Nov-18 09:00N 33°01' W 117°51'1 1.5
2017-Nov-18 08:30N 33°02' W 117°51'1 2.9
2017-Nov-18 08:00N 33°03' W 117°52'2 3.9
2017-Nov-18 07:30N 33°05' W 117°53'2 4.4
2017-Nov-18 07:00N 33°06' W 117°55'2 4.6
2017-Nov-18 06:30N 33°08' W 117°56'2 4.8
2017-Nov-18 06:00N 33°10' W 117°58'1 1.2
2017-Nov-18 05:30N 33°11' W 117°58'0 0.5
2017-Nov-18 05:00N 33°11' W 117°59'3 5.6
2017-Nov-18 04:29N 33°09' W 118°02'511.4
2017-Nov-18 04:00N 33°07' W 118°08'1011.5
2017-Nov-18 03:06N 33°05' W 118°20'611.9
2017-Nov-18 02:38N 33°08' W 118°26'111.5
2017-Nov-18 02:30N 33°08' W 118°28'811.6
2017-Nov-18 01:48N 33°12' W 118°36'411.8
2017-Nov-18 01:26N 33°14' W 118°41'511.5
2017-Nov-18 01:00N 33°14' W 118°47'612.0
2017-Nov-18 00:30N 33°12' W 118°54'815.6
2017-Nov-18 00:00N 33°08' W 119°02'815.8
2017-Nov-17 23:30N 33°04' W 119°10'815.8
2017-Nov-17 23:00N 33°00' W 119°18'816.4
2017-Nov-17 22:30N 32°60' W 119°28'815.9
2017-Nov-17 22:00N 32°59' W 119°37'815.7
2017-Nov-17 21:30N 33°00' W 119°46'815.1
2017-Nov-17 21:00N 33°02' W 119°55'1714.7
2017-Nov-17 19:49N 33°12' W 120°13'515.0
2017-Nov-17 19:27N 33°16' W 120°17'614.0
2017-Nov-17 19:00N 33°20' W 120°22'4 8.0
2017-Nov-17 18:31N 33°23' W 120°25'714.6
2017-Nov-17 18:01N 33°28' W 120°31'714.6
2017-Nov-17 17:30N 33°34' W 120°37'714.8
2017-Nov-17 17:00N 33°39' W 120°44'510.4
2017-Nov-17 16:30N 33°43' W 120°48'713.8
2017-Nov-17 16:01N 33°48' W 120°53'815.5
2017-Nov-17 15:31N 33°55' W 120°58'816.0
2017-Nov-17 15:00N 34°02' W 121°03'816.0
2017-Nov-17 14:30N 34°09' W 121°08'816.0
2017-Nov-17 14:00N 34°15' W 121°13'815.9
2017-Nov-17 13:30N 34°22' W 121°18'815.8
2017-Nov-17 13:00N 34°29' W 121°23'815.8
2017-Nov-17 12:30N 34°36' W 121°27'815.5
2017-Nov-17 12:00N 34°42' W 121°32'815.6
2017-Nov-17 11:30N 34°49' W 121°37'815.8
2017-Nov-17 11:01N 34°56' W 121°42'815.5
2017-Nov-17 10:30N 35°03' W 121°47'815.3
2017-Nov-17 10:00N 35°09' W 121°52'15314.9
2017-Nov-16 23:45N 37°29' W 123°09'312.7
2017-Nov-16 23:30N 37°32' W 123°09'611.4
2017-Nov-16 23:00N 37°35' W 123°03'611.1
2017-Nov-16 22:30N 37°38' W 122°57'510.9
2017-Nov-16 22:00N 37°41' W 122°51'511.1
2017-Nov-16 21:30N 37°43' W 122°45'4 8.7
2017-Nov-16 21:00N 37°45' W 122°40'611.9
2017-Nov-16 20:31N 37°48' W 122°33'713.4
2017-Nov-16 20:00N 37°51' W 122°26'4 8.1
2017-Nov-16 19:31N 37°55' W 122°25'1 0.2
2017-Nov-16 13:40N 37°56' W 122°25'0 0.0
2017-Nov-16 03:01N 37°56' W 122°25'0 0.0
2017-Nov-16 02:04N 37°56' W 122°25'0 0.0
2017-Nov-16 01:55N 37°56' W 122°25'0 0.0
2017-Nov-16 01:25N 37°56' W 122°25'0 0.0
2017-Nov-15 21:45N 37°56' W 122°25'0 0.0
2017-Nov-15 21:30N 37°56' W 122°25'1 2.7
2017-Nov-15 21:00N 37°54' W 122°25'4 7.5
2017-Nov-15 20:30N 37°51' W 122°25'4 7.2
2017-Nov-15 20:01N 37°49' W 122°29'4 7.8
2017-Nov-15 19:31N 37°47' W 122°34'611.2
2017-Nov-15 19:00N 37°45' W 122°40'5 9.2
2017-Nov-15 18:30N 37°42' W 122°45'4 9.0
2017-Nov-15 18:00N 37°39' W 122°49'4 9.0
2017-Nov-15 17:30N 37°37' W 122°54'5 9.0
2017-Nov-15 17:00N 37°34' W 122°59'5 9.0
2017-Nov-15 16:30N 37°32' W 123°03'4 8.9
2017-Nov-15 16:01N 37°29' W 123°08'4 9.0
2017-Nov-15 15:30N 37°27' W 123°13'4 8.1
2017-Nov-15 15:00N 37°24' W 123°17'3 6.1
2017-Nov-15 14:30N 37°23' W 123°20'53 9.9
2017-Nov-15 09:06N 36°30' W 123°09'1210.3
2017-Nov-15 07:57N 36°19' W 123°03'510.3
2017-Nov-15 07:27N 36°15' W 123°00'1310.2
2017-Nov-15 06:12N 36°03' W 122°53'210.0
2017-Nov-15 05:59N 36°01' W 122°52'4 7.5
2017-Nov-15 05:31N 35°58' W 122°50'3 6.1
2017-Nov-15 05:00N 35°55' W 122°49'611.2
2017-Nov-15 04:30N 35°50' W 122°46'611.0
2017-Nov-15 04:01N 35°45' W 122°43'611.4
2017-Nov-15 03:30N 35°40' W 122°39'610.9
2017-Nov-15 02:59N 35°35' W 122°36'510.9
2017-Nov-15 02:30N 35°31' W 122°32'1610.7
2017-Nov-15 01:01N 35°18' W 122°21'011.5
2017-Nov-15 01:00N 35°18' W 122°21'4 8.5
2017-Nov-15 00:31N 35°15' W 122°17'611.6
2017-Nov-15 00:00N 35°12' W 122°10'1611.6
2017-Nov-14 22:37N 35°05' W 121°53'111.7
2017-Nov-14 22:30N 35°04' W 121°52'611.8
2017-Nov-14 22:00N 35°01' W 121°45'611.7
2017-Nov-14 21:31N 34°58' W 121°39'611.9
2017-Nov-14 21:01N 34°56' W 121°33'712.6
2017-Nov-14 20:29N 34°53' W 121°26'612.5
2017-Nov-14 20:00N 34°49' W 121°19'612.7
2017-Nov-14 19:31N 34°46' W 121°13'612.3
2017-Nov-14 19:00N 34°42' W 121°07'511.1
2017-Nov-14 18:30N 34°38' W 121°02'510.8
2017-Nov-14 18:00N 34°35' W 120°57'5 9.5
2017-Nov-14 17:30N 34°31' W 120°54'611.1
2017-Nov-14 16:59N 34°27' W 120°60'5 9.6
2017-Nov-14 16:28N 34°25' W 121°05'612.4
2017-Nov-14 15:58N 34°22' W 121°11'612.0
2017-Nov-14 15:30N 34°19' W 121°17'511.1
2017-Nov-14 15:00N 34°14' W 121°20'5 9.2
2017-Nov-14 14:31N 34°09' W 121°19'510.9
2017-Nov-14 14:00N 34°07' W 121°13'611.4
2017-Nov-14 13:31N 34°04' W 121°07'611.2
2017-Nov-14 13:01N 34°01' W 121°02'611.3
2017-Nov-14 12:30N 33°58' W 120°56'611.4
2017-Nov-14 12:01N 33°55' W 120°50'611.1
2017-Nov-14 11:30N 33°52' W 120°44'611.1
2017-Nov-14 11:00N 33°49' W 120°39'510.7
2017-Nov-14 10:30N 33°46' W 120°33'510.8
2017-Nov-14 10:00N 33°43' W 120°28'510.7
2017-Nov-14 09:31N 33°40' W 120°22'510.9
2017-Nov-14 09:01N 33°38' W 120°17'510.2
2017-Nov-14 08:30N 33°36' W 120°10'510.7
2017-Nov-14 08:01N 33°37' W 120°04'510.4
2017-Nov-14 07:30N 33°38' W 119°58'511.2
2017-Nov-14 07:00N 33°39' W 119°52'611.4
2017-Nov-14 06:31N 33°41' W 119°45'611.6
2017-Nov-14 06:00N 33°42' W 119°38'611.2
2017-Nov-14 05:30N 33°43' W 119°31'611.6
2017-Nov-14 05:01N 33°44' W 119°25'712.4
2017-Nov-14 04:28N 33°45' W 119°17'612.5
2017-Nov-14 04:00N 33°46' W 119°10'611.5
2017-Nov-14 03:31N 33°47' W 119°03'611.5
2017-Nov-14 03:00N 33°46' W 118°56'611.6
2017-Nov-14 02:30N 33°46' W 118°49'611.7
2017-Nov-14 02:00N 33°48' W 118°42'611.3
2017-Nov-14 01:30N 33°51' W 118°36'611.3
2017-Nov-14 01:00N 33°53' W 118°30'1 0.8
2017-Nov-13 23:31N 33°53' W 118°29'0 0.0
2017-Nov-13 23:19N 33°53' W 118°29'0 0.1
2017-Nov-13 21:31N 33°53' W 118°29'  
Track history (hours):
 
Tides and Currents Weather Stations Pressure Air Temp Water Temp Dewpoint Dewpoint Depression Visibility Wind Speed Wind Dir Waves Ship Positions

Pegasus Voyager

Last reported at 2017-Nov-23 03:30 UTC. Time now 2017-Nov-23 03:32 UTC.
Position N 33°08' W 117°57'.

Length 276 m; draft 9.4 m.

Type: Ship (hazmat cat C). MMSI: 311000111.

Date/timePositionNaut miles runAvg speedWind from/ knotsBaromVisibWave heightAir tempDewpointWater temp
2017-Nov-23 03:30N 33°08' W 117°57'3 6.2
2017-Nov-23 03:00N 33°11' W 117°59'0 0.5
2017-Nov-23 02:30N 33°11' W 117°59'2 4.9
2017-Nov-23 02:01N 33°10' W 118°02'611.1
2017-Nov-23 01:30N 33°07' W 118°08'611.1
2017-Nov-23 01:00N 33°05' W 118°14'610.9
2017-Nov-23 00:30N 33°06' W 118°21'2611.2
2017-Nov-22 22:11N 33°14' W 118°50'211.1
2017-Nov-22 22:00N 33°14' W 118°52'4 8.1
2017-Nov-22 21:30N 33°14' W 118°57'714.3
2017-Nov-22 21:01N 33°15' W 119°05'713.6
2017-Nov-22 20:30N 33°19' W 119°12'713.8
2017-Nov-22 19:59N 33°24' W 119°18'713.7
2017-Nov-22 19:31N 33°30' W 119°22'  
2017-Nov-20 00:30N 35°01' W 122°14'714.0
2017-Nov-20 00:00N 34°55' W 122°11'713.7
2017-Nov-19 23:30N 34°49' W 122°07'714.1
2017-Nov-19 23:00N 34°43' W 122°03'714.5
2017-Nov-19 22:30N 34°36' W 121°59'714.4
2017-Nov-19 22:00N 34°30' W 121°56'714.2
2017-Nov-19 21:30N 34°23' W 121°53'714.1
2017-Nov-19 21:00N 34°17' W 121°48'714.4
2017-Nov-19 20:30N 34°11' W 121°44'714.3
2017-Nov-19 20:00N 34°04' W 121°39'510.2
2017-Nov-19 19:30N 33°60' W 121°37'611.7
2017-Nov-19 19:00N 33°55' W 121°34'714.3
2017-Nov-19 18:30N 33°48' W 121°30'713.5
2017-Nov-19 18:00N 33°42' W 121°26'612.7
2017-Nov-19 17:30N 33°36' W 121°23'510.5
2017-Nov-19 17:00N 33°31' W 121°21'3 6.1
2017-Nov-19 16:30N 33°28' W 121°20'611.7
2017-Nov-19 15:59N 33°24' W 121°15'713.9
2017-Nov-19 15:29N 33°18' W 121°11'713.8
2017-Nov-19 15:01N 33°14' W 121°05'714.3
2017-Nov-19 14:31N 33°13' W 120°56'714.8
2017-Nov-19 14:00N 33°12' W 120°47'714.7
2017-Nov-19 13:30N 33°11' W 120°39'814.6
2017-Nov-19 12:59N 33°09' W 120°30'714.1
2017-Nov-19 12:30N 33°08' W 120°22'714.5
2017-Nov-19 12:01N 33°06' W 120°13'714.9
2017-Nov-19 11:30N 33°05' W 120°05'714.7
2017-Nov-19 11:00N 33°03' W 119°56'714.8
2017-Nov-19 10:31N 33°02' W 119°48'714.4
2017-Nov-19 10:01N 33°00' W 119°39'714.3
2017-Nov-19 09:30N 32°59' W 119°31'714.2
2017-Nov-19 09:00N 32°59' W 119°22'815.1
2017-Nov-19 08:30N 33°02' W 119°14'815.1
2017-Nov-19 08:00N 33°06' W 119°06'815.2
2017-Nov-19 07:29N 33°09' W 118°58'714.4
2017-Nov-19 07:00N 33°12' W 118°51'612.0
2017-Nov-19 06:30N 33°13' W 118°44'611.4
2017-Nov-19 05:58N 33°12' W 118°36'511.7
2017-Nov-19 05:30N 33°10' W 118°30'612.0
2017-Nov-19 05:00N 33°07' W 118°24'611.7
2017-Nov-19 04:29N 33°05' W 118°17'610.4
2017-Nov-19 03:54N 33°04' W 118°10'511.6
2017-Nov-19 03:30N 33°04' W 118°05'611.8
2017-Nov-19 03:01N 33°03' W 117°58'5 9.4
2017-Nov-19 02:30N 33°03' W 117°52'0 0.4
2017-Nov-19 01:56N 33°03' W 117°52'1 1.3
2017-Nov-19 01:26N 33°03' W 117°51'0 0.4
2017-Nov-19 00:56N 33°03' W 117°51'0 0.9
2017-Nov-19 00:29N 33°02' W 117°51'1 2.0
2017-Nov-18 23:56N 33°01' W 117°51'1 2.6
2017-Nov-18 23:26N 33°00' W 117°50'1 1.8
2017-Nov-18 22:56N 32°59' W 117°50'0 0.8
2017-Nov-18 22:26N 32°59' W 117°49'0 0.6
2017-Nov-18 21:59N 32°59' W 117°49'0 0.4
2017-Nov-18 21:29N 32°59' W 117°49'0 0.8
2017-Nov-18 20:56N 32°58' W 117°49'1 1.0
2017-Nov-18 20:26N 32°58' W 117°49'0 0.6
2017-Nov-18 19:56N 32°58' W 117°48'0 0.6
2017-Nov-18 19:26N 32°57' W 117°48'0 0.7
2017-Nov-18 18:56N 32°57' W 117°48'1 1.0
2017-Nov-18 18:08N 32°56' W 117°48'0 1.4
2017-Nov-18 17:56N 32°56' W 117°48'1 1.0
2017-Nov-18 17:26N 32°55' W 117°48'0 0.6
2017-Nov-18 16:50N 32°55' W 117°48'3 0.8
2017-Nov-18 13:26N 32°58' W 117°49'1 1.1
2017-Nov-18 12:56N 32°58' W 117°49'1 1.1
2017-Nov-18 12:26N 32°59' W 117°50'0 0.8
2017-Nov-18 11:57N 32°59' W 117°50'0 0.8
2017-Nov-18 11:30N 32°59' W 117°50'0 1.0
2017-Nov-18 11:00N 32°60' W 117°50'0 0.8
2017-Nov-18 10:30N 33°00' W 117°50'0 0.8
2017-Nov-18 10:00N 33°00' W 117°50'0 0.8
2017-Nov-18 09:30N 33°01' W 117°50'0 0.7
2017-Nov-18 09:00N 33°01' W 117°51'1 1.5
2017-Nov-18 08:30N 33°02' W 117°51'1 2.9
2017-Nov-18 08:00N 33°03' W 117°52'2 3.9
2017-Nov-18 07:30N 33°05' W 117°53'2 4.4
2017-Nov-18 07:00N 33°06' W 117°55'2 4.6
2017-Nov-18 06:30N 33°08' W 117°56'2 4.8
2017-Nov-18 06:00N 33°10' W 117°58'1 1.2
2017-Nov-18 05:30N 33°11' W 117°58'0 0.5
2017-Nov-18 05:00N 33°11' W 117°59'3 5.6
2017-Nov-18 04:29N 33°09' W 118°02'511.4
2017-Nov-18 04:00N 33°07' W 118°08'1011.5
2017-Nov-18 03:06N 33°05' W 118°20'611.9
2017-Nov-18 02:38N 33°08' W 118°26'111.5
2017-Nov-18 02:30N 33°08' W 118°28'811.6
2017-Nov-18 01:48N 33°12' W 118°36'411.8
2017-Nov-18 01:26N 33°14' W 118°41'511.5
2017-Nov-18 01:00N 33°14' W 118°47'612.0
2017-Nov-18 00:30N 33°12' W 118°54'815.6
2017-Nov-18 00:00N 33°08' W 119°02'815.8
2017-Nov-17 23:30N 33°04' W 119°10'815.8
2017-Nov-17 23:00N 33°00' W 119°18'816.4
2017-Nov-17 22:30N 32°60' W 119°28'815.9
2017-Nov-17 22:00N 32°59' W 119°37'815.7
2017-Nov-17 21:30N 33°00' W 119°46'815.1
2017-Nov-17 21:00N 33°02' W 119°55'1714.7
2017-Nov-17 19:49N 33°12' W 120°13'515.0
2017-Nov-17 19:27N 33°16' W 120°17'614.0
2017-Nov-17 19:00N 33°20' W 120°22'4 8.0
2017-Nov-17 18:31N 33°23' W 120°25'714.6
2017-Nov-17 18:01N 33°28' W 120°31'714.6
2017-Nov-17 17:30N 33°34' W 120°37'714.8
2017-Nov-17 17:00N 33°39' W 120°44'510.4
2017-Nov-17 16:30N 33°43' W 120°48'713.8
2017-Nov-17 16:01N 33°48' W 120°53'815.5
2017-Nov-17 15:31N 33°55' W 120°58'816.0
2017-Nov-17 15:00N 34°02' W 121°03'816.0
2017-Nov-17 14:30N 34°09' W 121°08'816.0
2017-Nov-17 14:00N 34°15' W 121°13'815.9
2017-Nov-17 13:30N 34°22' W 121°18'815.8
2017-Nov-17 13:00N 34°29' W 121°23'815.8
2017-Nov-17 12:30N 34°36' W 121°27'815.5
2017-Nov-17 12:00N 34°42' W 121°32'815.6
2017-Nov-17 11:30N 34°49' W 121°37'815.8
2017-Nov-17 11:01N 34°56' W 121°42'815.5
2017-Nov-17 10:30N 35°03' W 121°47'815.3
2017-Nov-17 10:00N 35°09' W 121°52'15314.9
2017-Nov-16 23:45N 37°29' W 123°09'312.7
2017-Nov-16 23:30N 37°32' W 123°09'611.4
2017-Nov-16 23:00N 37°35' W 123°03'611.1
2017-Nov-16 22:30N 37°38' W 122°57'510.9
2017-Nov-16 22:00N 37°41' W 122°51'511.1
2017-Nov-16 21:30N 37°43' W 122°45'4 8.7
2017-Nov-16 21:00N 37°45' W 122°40'611.9
2017-Nov-16 20:31N 37°48' W 122°33'713.4
2017-Nov-16 20:00N 37°51' W 122°26'4 8.1
2017-Nov-16 19:31N 37°55' W 122°25'1 0.2
2017-Nov-16 13:40N 37°56' W 122°25'0 0.0
2017-Nov-16 03:01N 37°56' W 122°25'0 0.0
2017-Nov-16 02:04N 37°56' W 122°25'0 0.0
2017-Nov-16 01:55N 37°56' W 122°25'0 0.0
2017-Nov-16 01:25N 37°56' W 122°25'0 0.0
2017-Nov-15 21:45N 37°56' W 122°25'0 0.0
2017-Nov-15 21:30N 37°56' W 122°25'1 2.7
2017-Nov-15 21:00N 37°54' W 122°25'4 7.5
2017-Nov-15 20:30N 37°51' W 122°25'4 7.2
2017-Nov-15 20:01N 37°49' W 122°29'4 7.8
2017-Nov-15 19:31N 37°47' W 122°34'611.2
2017-Nov-15 19:00N 37°45' W 122°40'5 9.2
2017-Nov-15 18:30N 37°42' W 122°45'4 9.0
2017-Nov-15 18:00N 37°39' W 122°49'4 9.0
2017-Nov-15 17:30N 37°37' W 122°54'5 9.0
2017-Nov-15 17:00N 37°34' W 122°59'5 9.0
2017-Nov-15 16:30N 37°32' W 123°03'4 8.9
2017-Nov-15 16:01N 37°29' W 123°08'4 9.0
2017-Nov-15 15:30N 37°27' W 123°13'4 8.1
2017-Nov-15 15:00N 37°24' W 123°17'3 6.1
2017-Nov-15 14:30N 37°23' W 123°20'53 9.9
2017-Nov-15 09:06N 36°30' W 123°09'1210.3
2017-Nov-15 07:57N 36°19' W 123°03'510.3
2017-Nov-15 07:27N 36°15' W 123°00'1310.2
2017-Nov-15 06:12N 36°03' W 122°53'210.0
2017-Nov-15 05:59N 36°01' W 122°52'4 7.5
2017-Nov-15 05:31N 35°58' W 122°50'3 6.1
2017-Nov-15 05:00N 35°55' W 122°49'611.2
2017-Nov-15 04:30N 35°50' W 122°46'611.0
2017-Nov-15 04:01N 35°45' W 122°43'611.4
2017-Nov-15 03:30N 35°40' W 122°39'610.9
2017-Nov-15 02:59N 35°35' W 122°36'510.9
2017-Nov-15 02:30N 35°31' W 122°32'1610.7
2017-Nov-15 01:01N 35°18' W 122°21'011.5
2017-Nov-15 01:00N 35°18' W 122°21'4 8.5
2017-Nov-15 00:31N 35°15' W 122°17'611.6
2017-Nov-15 00:00N 35°12' W 122°10'1611.6
2017-Nov-14 22:37N 35°05' W 121°53'111.7
2017-Nov-14 22:30N 35°04' W 121°52'611.8
2017-Nov-14 22:00N 35°01' W 121°45'611.7
2017-Nov-14 21:31N 34°58' W 121°39'611.9
2017-Nov-14 21:01N 34°56' W 121°33'712.6
2017-Nov-14 20:29N 34°53' W 121°26'612.5
2017-Nov-14 20:00N 34°49' W 121°19'612.7
2017-Nov-14 19:31N 34°46' W 121°13'612.3
2017-Nov-14 19:00N 34°42' W 121°07'511.1
2017-Nov-14 18:30N 34°38' W 121°02'510.8
2017-Nov-14 18:00N 34°35' W 120°57'5 9.5
2017-Nov-14 17:30N 34°31' W 120°54'611.1
2017-Nov-14 16:59N 34°27' W 120°60'5 9.6
2017-Nov-14 16:28N 34°25' W 121°05'612.4
2017-Nov-14 15:58N 34°22' W 121°11'612.0
2017-Nov-14 15:30N 34°19' W 121°17'511.1
2017-Nov-14 15:00N 34°14' W 121°20'5 9.2
2017-Nov-14 14:31N 34°09' W 121°19'510.9
2017-Nov-14 14:00N 34°07' W 121°13'611.4
2017-Nov-14 13:31N 34°04' W 121°07'611.2
2017-Nov-14 13:01N 34°01' W 121°02'611.3
2017-Nov-14 12:30N 33°58' W 120°56'611.4
2017-Nov-14 12:01N 33°55' W 120°50'611.1
2017-Nov-14 11:30N 33°52' W 120°44'611.1
2017-Nov-14 11:00N 33°49' W 120°39'510.7
2017-Nov-14 10:30N 33°46' W 120°33'510.8
2017-Nov-14 10:00N 33°43' W 120°28'510.7
2017-Nov-14 09:31N 33°40' W 120°22'510.9
2017-Nov-14 09:01N 33°38' W 120°17'510.2
2017-Nov-14 08:30N 33°36' W 120°10'510.7
2017-Nov-14 08:01N 33°37' W 120°04'510.4
2017-Nov-14 07:30N 33°38' W 119°58'511.2
2017-Nov-14 07:00N 33°39' W 119°52'611.4
2017-Nov-14 06:31N 33°41' W 119°45'611.6
2017-Nov-14 06:00N 33°42' W 119°38'611.2
2017-Nov-14 05:30N 33°43' W 119°31'611.6
2017-Nov-14 05:01N 33°44' W 119°25'712.4
2017-Nov-14 04:28N 33°45' W 119°17'612.5
2017-Nov-14 04:00N 33°46' W 119°10'611.5
2017-Nov-14 03:31N 33°47' W 119°03'611.5
2017-Nov-14 03:00N 33°46' W 118°56'611.6
2017-Nov-14 02:30N 33°46' W 118°49'611.7
2017-Nov-14 02:00N 33°48' W 118°42'611.3
2017-Nov-14 01:30N 33°51' W 118°36'611.3
2017-Nov-14 01:00N 33°53' W 118°30'1 0.8
2017-Nov-13 23:31N 33°53' W 118°29'0 0.0
2017-Nov-13 23:19N 33°53' W 118°29'0 0.1
2017-Nov-13 21:31N 33°53' W 118°29'  

Dump ship's entire track history